Walker, Michigan
Current Conditions -  °F | °C
As of 2:53 PM on Sunday 25 Jan 2015 (Local Time) from KGRR Reporting Station
Broken Clouds Broken Clouds  
Wind Chill:   Ceiling: 4800
Heat Index: 22°   Visibility: 10mi
Dew Point: 12°   Wind: 16mph
Humidity: 66%   Direction: 60°ENE
Pressure: 29.89"   Gusts: NA
Location:  43.0133°N, 85.6986°W
Report Text: KGRR 251953Z 06014KT 10SM BKN048 BKN210 M06/M11 A2989 RMK AO2 SLP132 T10561111
Loading
Personal Weather Stations






























Interactive Weather Map New forecast layout! Learn more

10-Day Weather Forecast

Advertisements
Track Severe Weather on mobile